sensor_id;sensor_type;location;lat;lon;timestamp;P1;durP1;ratioP1;P2;durP2;ratioP2
18574;SDS011;9417;16.484;102.872;2022-07-06T05:33:38;14.07;;;8.23;;
18574;SDS011;9417;16.484;102.872;2022-07-06T05:35:46;15.35;;;8.00;;
18574;SDS011;9417;16.484;102.872;2022-07-06T05:37:59;18.98;;;8.18;;
18574;SDS011;9417;16.484;102.872;2022-07-06T05:40:08;16.33;;;7.55;;
18574;SDS011;9417;16.484;102.872;2022-07-06T05:42:17;12.18;;;7.88;;
18574;SDS011;9417;16.484;102.872;2022-07-06T05:44:25;10.15;;;6.97;;
18574;SDS011;9417;16.484;102.872;2022-07-06T05:46:32;11.52;;;7.13;;
18574;SDS011;9417;16.484;102.872;2022-07-06T05:48:42;10.82;;;7.30;;
18574;SDS011;9417;16.484;102.872;2022-07-06T05:51:07;10.88;;;7.30;;
18574;SDS011;9417;16.484;102.872;2022-07-06T05:53:17;11.23;;;7.20;;
18574;SDS011;9417;16.484;102.872;2022-07-06T05:55:27;8.00;;;6.47;;
18574;SDS011;9417;16.484;102.872;2022-07-06T05:57:37;10.95;;;7.18;;
18574;SDS011;9417;16.484;102.872;2022-07-06T06:01:52;7.80;;;5.10;;
18574;SDS011;9417;16.484;102.872;2022-07-06T06:04:01;9.27;;;5.47;;
18574;SDS011;9417;16.484;102.872;2022-07-06T06:06:08;6.85;;;5.68;;
18574;SDS011;9417;16.484;102.872;2022-07-06T06:08:16;6.70;;;4.70;;
18574;SDS011;9417;16.484;102.872;2022-07-06T06:10:26;8.48;;;4.72;;
18574;SDS011;9417;16.484;102.872;2022-07-06T06:13:06;8.43;;;4.85;;
18574;SDS011;9417;16.484;102.872;2022-07-06T06:15:14;9.63;;;5.13;;
18574;SDS011;9417;16.484;102.872;2022-07-06T06:17:23;7.05;;;5.00;;
18574;SDS011;9417;16.484;102.872;2022-07-06T06:19:31;6.90;;;5.07;;
18574;SDS011;9417;16.484;102.872;2022-07-06T06:21:40;6.97;;;5.07;;
18574;SDS011;9417;16.484;102.872;2022-07-06T06:23:48;7.90;;;5.15;;
18574;SDS011;9417;16.484;102.872;2022-07-06T06:25:57;10.05;;;5.75;;
18574;SDS011;9417;16.484;102.872;2022-07-06T06:28:07;8.05;;;5.88;;
18574;SDS011;9417;16.484;102.872;2022-07-06T06:30:16;7.95;;;4.88;;
18574;SDS011;9417;16.484;102.872;2022-07-06T06:32:26;9.13;;;5.05;;
18574;SDS011;9417;16.484;102.872;2022-07-06T06:34:33;9.63;;;5.15;;
18574;SDS011;9417;16.484;102.872;2022-07-06T06:36:40;6.68;;;4.78;;
18574;SDS011;9417;16.484;102.872;2022-07-06T06:38:49;9.57;;;5.40;;
18574;SDS011;9417;16.484;102.872;2022-07-06T06:40:59;7.93;;;5.18;;
18574;SDS011;9417;16.484;102.872;2022-07-06T06:43:09;4.90;;;4.32;;
18574;SDS011;9417;16.484;102.872;2022-07-06T06:55:24;6.43;;;4.95;;
18574;SDS011;9417;16.484;102.872;2022-07-06T06:57:31;10.40;;;5.05;;
18574;SDS011;9417;16.484;102.872;2022-07-06T06:59:40;8.43;;;5.00;;
18574;SDS011;9417;16.484;102.872;2022-07-06T07:01:47;7.47;;;4.53;;
18574;SDS011;9417;16.484;102.872;2022-07-06T07:03:58;7.90;;;4.53;;
18574;SDS011;9417;16.484;102.872;2022-07-06T07:06:05;7.07;;;4.78;;
18574;SDS011;9417;16.484;102.872;2022-07-06T07:08:12;5.07;;;3.58;;
18574;SDS011;9417;16.484;102.872;2022-07-06T07:10:20;7.28;;;3.97;;
18574;SDS011;9417;16.484;102.872;2022-07-06T07:12:27;7.20;;;4.03;;
18574;SDS011;9417;16.484;102.872;2022-07-06T07:14:34;6.70;;;3.95;;
18574;SDS011;9417;16.484;102.872;2022-07-06T07:16:43;6.28;;;3.83;;
18574;SDS011;9417;16.484;102.872;2022-07-06T07:18:50;7.60;;;4.35;;
18574;SDS011;9417;16.484;102.872;2022-07-06T07:20:58;5.80;;;3.60;;
18574;SDS011;9417;16.484;102.872;2022-07-06T07:23:05;6.22;;;3.63;;
18574;SDS011;9417;16.484;102.872;2022-07-06T07:25:12;9.00;;;4.00;;
18574;SDS011;9417;16.484;102.872;2022-07-06T07:27:20;5.40;;;3.70;;
18574;SDS011;9417;16.484;102.872;2022-07-06T07:29:27;5.43;;;3.92;;
18574;SDS011;9417;16.484;102.872;2022-07-06T07:31:34;7.28;;;3.80;;
18574;SDS011;9417;16.484;102.872;2022-07-06T07:33:43;7.47;;;4.13;;
18574;SDS011;9417;16.484;102.872;2022-07-06T07:35:56;7.75;;;4.47;;
18574;SDS011;9417;16.484;102.872;2022-07-06T07:38:03;6.75;;;3.95;;
18574;SDS011;9417;16.484;102.872;2022-07-06T07:40:11;5.47;;;3.88;;
18574;SDS011;9417;16.484;102.872;2022-07-06T07:42:18;6.32;;;3.88;;
18574;SDS011;9417;16.484;102.872;2022-07-06T07:44:25;5.20;;;3.70;;
18574;SDS011;9417;16.484;102.872;2022-07-06T07:46:32;7.93;;;3.60;;
18574;SDS011;9417;16.484;102.872;2022-07-06T07:48:40;6.80;;;3.58;;
18574;SDS011;9417;16.484;102.872;2022-07-06T07:50:51;6.32;;;3.50;;
18574;SDS011;9417;16.484;102.872;2022-07-06T07:52:58;5.47;;;3.92;;
18574;SDS011;9417;16.484;102.872;2022-07-06T07:55:05;6.90;;;3.75;;
18574;SDS011;9417;16.484;102.872;2022-07-06T07:57:33;4.15;;;3.25;;
18574;SDS011;9417;16.484;102.872;2022-07-06T07:59:40;4.57;;;3.65;;
18574;SDS011;9417;16.484;102.872;2022-07-06T08:01:48;4.70;;;3.83;;
18574;SDS011;9417;16.484;102.872;2022-07-06T08:03:57;4.80;;;3.33;;
18574;SDS011;9417;16.484;102.872;2022-07-06T08:06:04;8.10;;;4.07;;
18574;SDS011;9417;16.484;102.872;2022-07-06T08:08:11;5.35;;;3.78;;
18574;SDS011;9417;16.484;102.872;2022-07-06T08:10:19;7.82;;;3.72;;
18574;SDS011;9417;16.484;102.872;2022-07-06T08:12:26;4.10;;;3.42;;
18574;SDS011;9417;16.484;102.872;2022-07-06T08:14:33;6.53;;;3.50;;
18574;SDS011;9417;16.484;102.872;2022-07-06T08:16:41;4.55;;;3.47;;
18574;SDS011;9417;16.484;102.872;2022-07-06T08:18:49;4.53;;;3.85;;
18574;SDS011;9417;16.484;102.872;2022-07-06T08:20:58;4.10;;;3.50;;
18574;SDS011;9417;16.484;102.872;2022-07-06T08:23:25;6.28;;;3.97;;
18574;SDS011;9417;16.484;102.872;2022-07-06T08:25:32;6.00;;;3.70;;
18574;SDS011;9417;16.484;102.872;2022-07-06T08:27:39;5.95;;;3.53;;
18574;SDS011;9417;16.484;102.872;2022-07-06T08:29:47;5.65;;;3.05;;
18574;SDS011;9417;16.484;102.872;2022-07-06T08:31:54;3.60;;;2.90;;
18574;SDS011;9417;16.484;102.872;2022-07-06T08:34:15;4.72;;;2.80;;
18574;SDS011;9417;16.484;102.872;2022-07-06T08:36:24;5.70;;;3.20;;
18574;SDS011;9417;16.484;102.872;2022-07-06T08:38:32;6.00;;;3.00;;
18574;SDS011;9417;16.484;102.872;2022-07-06T08:40:40;4.75;;;3.20;;
18574;SDS011;9417;16.484;102.872;2022-07-06T08:42:49;3.78;;;2.95;;
18574;SDS011;9417;16.484;102.872;2022-07-06T08:45:00;4.57;;;2.83;;
18574;SDS011;9417;16.484;102.872;2022-07-06T08:47:08;3.47;;;2.38;;
18574;SDS011;9417;16.484;102.872;2022-07-06T08:49:20;4.97;;;2.35;;
18574;SDS011;9417;16.484;102.872;2022-07-06T08:51:30;4.85;;;2.45;;
18574;SDS011;9417;16.484;102.872;2022-07-06T08:53:37;5.65;;;2.67;;
18574;SDS011;9417;16.484;102.872;2022-07-06T08:55:46;5.88;;;3.13;;
18574;SDS011;9417;16.484;102.872;2022-07-06T08:57:54;5.88;;;3.00;;
18574;SDS011;9417;16.484;102.872;2022-07-06T09:00:03;5.03;;;3.00;;
18574;SDS011;9417;16.484;102.872;2022-07-06T09:02:11;4.70;;;2.67;;
18574;SDS011;9417;16.484;102.872;2022-07-06T09:04:19;5.30;;;3.17;;
18574;SDS011;9417;16.484;102.872;2022-07-06T09:06:31;4.65;;;3.00;;
18574;SDS011;9417;16.484;102.872;2022-07-06T09:08:40;3.40;;;2.22;;
18574;SDS011;9417;16.484;102.872;2022-07-06T09:10:48;6.70;;;2.80;;
18574;SDS011;9417;16.484;102.872;2022-07-06T09:13:01;3.60;;;2.50;;
18574;SDS011;9417;16.484;102.872;2022-07-06T09:15:09;4.35;;;2.40;;
18574;SDS011;9417;16.484;102.872;2022-07-06T09:17:17;12.63;;;7.70;;
18574;SDS011;9417;16.484;102.872;2022-07-06T09:19:24;13.27;;;8.57;;
18574;SDS011;9417;16.484;102.872;2022-07-06T09:21:33;13.63;;;7.90;;
18574;SDS011;9417;16.484;102.872;2022-07-06T09:23:41;12.20;;;6.15;;
18574;SDS011;9417;16.484;102.872;2022-07-06T09:25:48;9.35;;;5.75;;
18574;SDS011;9417;16.484;102.872;2022-07-06T09:27:56;8.75;;;5.88;;
18574;SDS011;9417;16.484;102.872;2022-07-06T09:30:05;8.30;;;5.95;;
18574;SDS011;9417;16.484;102.872;2022-07-06T09:32:13;11.23;;;6.60;;
18574;SDS011;9417;16.484;102.872;2022-07-06T09:34:39;11.52;;;6.25;;
18574;SDS011;9417;16.484;102.872;2022-07-06T09:36:49;12.02;;;6.35;;
18574;SDS011;9417;16.484;102.872;2022-07-06T09:38:56;7.95;;;5.90;;
18574;SDS011;9417;16.484;102.872;2022-07-06T09:41:30;9.85;;;6.30;;
18574;SDS011;9417;16.484;102.872;2022-07-06T09:43:38;11.55;;;6.45;;
18574;SDS011;9417;16.484;102.872;2022-07-06T09:45:46;8.82;;;6.03;;
18574;SDS011;9417;16.484;102.872;2022-07-06T09:47:56;9.05;;;6.35;;
18574;SDS011;9417;16.484;102.872;2022-07-06T09:50:10;11.40;;;7.78;;
18574;SDS011;9417;16.484;102.872;2022-07-06T09:54:30;11.75;;;6.35;;
18574;SDS011;9417;16.484;102.872;2022-07-06T09:56:39;11.43;;;7.25;;
18574;SDS011;9417;16.484;102.872;2022-07-06T09:58:50;11.30;;;7.55;;
18574;SDS011;9417;16.484;102.872;2022-07-06T10:01:05;10.75;;;7.07;;
18574;SDS011;9417;16.484;102.872;2022-07-06T10:03:15;10.07;;;7.10;;
18574;SDS011;9417;16.484;102.872;2022-07-06T10:05:23;10.48;;;7.57;;
18574;SDS011;9417;16.484;102.872;2022-07-06T10:07:34;11.75;;;6.97;;
18574;SDS011;9417;16.484;102.872;2022-07-06T10:09:42;11.75;;;6.90;;
18574;SDS011;9417;16.484;102.872;2022-07-06T10:11:51;11.60;;;7.35;;
18574;SDS011;9417;16.484;102.872;2022-07-06T10:14:00;11.50;;;6.97;;
18574;SDS011;9417;16.484;102.872;2022-07-06T10:16:09;13.93;;;6.93;;
18574;SDS011;9417;16.484;102.872;2022-07-06T10:18:17;8.60;;;6.25;;
18574;SDS011;9417;16.484;102.872;2022-07-06T10:20:26;11.90;;;6.82;;
18574;SDS011;9417;16.484;102.872;2022-07-06T10:22:37;10.23;;;6.85;;
18574;SDS011;9417;16.484;102.872;2022-07-06T10:24:46;11.70;;;6.68;;
18574;SDS011;9417;16.484;102.872;2022-07-06T10:26:55;14.27;;;6.65;;
18574;SDS011;9417;16.484;102.872;2022-07-06T10:29:02;10.23;;;6.30;;
18574;SDS011;9417;16.484;102.872;2022-07-06T10:31:10;11.30;;;6.57;;
18574;SDS011;9417;16.484;102.872;2022-07-06T10:33:18;11.52;;;6.75;;
18574;SDS011;9417;16.484;102.872;2022-07-06T10:35:30;14.57;;;7.85;;
18574;SDS011;9417;16.484;102.872;2022-07-06T10:37:39;10.43;;;6.75;;
18574;SDS011;9417;16.484;102.872;2022-07-06T10:39:54;11.68;;;7.60;;
18574;SDS011;9417;16.484;102.872;2022-07-06T10:44:48;9.43;;;5.82;;
18574;SDS011;9417;16.484;102.872;2022-07-06T10:46:55;9.57;;;4.93;;
18574;SDS011;9417;16.484;102.872;2022-07-06T10:49:03;12.05;;;4.65;;
18574;SDS011;9417;16.484;102.872;2022-07-06T10:51:41;7.88;;;4.68;;
18574;SDS011;9417;16.484;102.872;2022-07-06T10:53:55;7.28;;;4.20;;
18574;SDS011;9417;16.484;102.872;2022-07-06T10:56:03;11.10;;;4.57;;
18574;SDS011;9417;16.484;102.872;2022-07-06T10:58:11;5.53;;;3.85;;
18574;SDS011;9417;16.484;102.872;2022-07-06T11:00:19;6.55;;;4.05;;
18574;SDS011;9417;16.484;102.872;2022-07-06T11:02:29;9.23;;;4.47;;
18574;SDS011;9417;16.484;102.872;2022-07-06T11:04:44;6.32;;;3.90;;
18574;SDS011;9417;16.484;102.872;2022-07-06T11:06:52;7.35;;;4.22;;
18574;SDS011;9417;16.484;102.872;2022-07-06T11:09:02;6.13;;;4.03;;
18574;SDS011;9417;16.484;102.872;2022-07-06T11:11:11;7.28;;;4.25;;
18574;SDS011;9417;16.484;102.872;2022-07-06T11:13:26;9.80;;;5.32;;
18574;SDS011;9417;16.484;102.872;2022-07-06T11:15:48;11.60;;;6.05;;
18574;SDS011;9417;16.484;102.872;2022-07-06T11:18:10;10.68;;;6.45;;
18574;SDS011;9417;16.484;102.872;2022-07-06T11:20:18;9.35;;;6.63;;
18574;SDS011;9417;16.484;102.872;2022-07-06T11:22:26;11.52;;;6.60;;
18574;SDS011;9417;16.484;102.872;2022-07-06T11:24:39;10.57;;;6.68;;
18574;SDS011;9417;16.484;102.872;2022-07-06T11:26:47;8.68;;;6.43;;
18574;SDS011;9417;16.484;102.872;2022-07-06T11:28:56;11.13;;;7.00;;
18574;SDS011;9417;16.484;102.872;2022-07-06T11:31:05;13.15;;;6.35;;
18574;SDS011;9417;16.484;102.872;2022-07-06T11:33:27;9.05;;;5.45;;
18574;SDS011;9417;16.484;102.872;2022-07-06T11:35:35;6.82;;;5.45;;
18574;SDS011;9417;16.484;102.872;2022-07-06T11:37:42;7.07;;;4.70;;
18574;SDS011;9417;16.484;102.872;2022-07-06T11:39:51;6.10;;;4.10;;
18574;SDS011;9417;16.484;102.872;2022-07-06T11:41:58;7.28;;;4.70;;
18574;SDS011;9417;16.484;102.872;2022-07-06T11:44:07;5.90;;;4.13;;
18574;SDS011;9417;16.484;102.872;2022-07-06T11:46:19;9.02;;;4.82;;
18574;SDS011;9417;16.484;102.872;2022-07-06T11:48:30;8.85;;;5.28;;
18574;SDS011;9417;16.484;102.872;2022-07-06T11:50:37;9.70;;;4.97;;
18574;SDS011;9417;16.484;102.872;2022-07-06T11:52:45;9.05;;;5.78;;
18574;SDS011;9417;16.484;102.872;2022-07-06T11:54:58;10.13;;;5.93;;
18574;SDS011;9417;16.484;102.872;2022-07-06T11:57:07;10.45;;;5.55;;
18574;SDS011;9417;16.484;102.872;2022-07-06T11:59:15;11.50;;;5.60;;
18574;SDS011;9417;16.484;102.872;2022-07-06T12:01:27;12.32;;;5.97;;
18574;SDS011;9417;16.484;102.872;2022-07-06T12:03:35;14.02;;;7.95;;
18574;SDS011;9417;16.484;102.872;2022-07-06T12:05:43;14.57;;;8.45;;
18574;SDS011;9417;16.484;102.872;2022-07-06T12:08:03;11.52;;;7.85;;
18574;SDS011;9417;16.484;102.872;2022-07-06T12:10:13;14.35;;;8.55;;
18574;SDS011;9417;16.484;102.872;2022-07-06T12:12:37;18.00;;;9.68;;
18574;SDS011;9417;16.484;102.872;2022-07-06T12:14:44;16.05;;;9.60;;
18574;SDS011;9417;16.484;102.872;2022-07-06T12:16:51;19.02;;;9.57;;
18574;SDS011;9417;16.484;102.872;2022-07-06T12:18:59;16.42;;;9.02;;
18574;SDS011;9417;16.484;102.872;2022-07-06T12:21:09;16.48;;;8.95;;
18574;SDS011;9417;16.484;102.872;2022-07-06T12:23:20;17.60;;;9.52;;
18574;SDS011;9417;16.484;102.872;2022-07-06T12:25:33;15.63;;;10.30;;
18574;SDS011;9417;16.484;102.872;2022-07-06T12:27:40;18.50;;;12.02;;
18574;SDS011;9417;16.484;102.872;2022-07-06T12:29:49;21.23;;;11.80;;
18574;SDS011;9417;16.484;102.872;2022-07-06T12:31:56;15.55;;;11.00;;
18574;SDS011;9417;16.484;102.872;2022-07-06T12:34:04;16.77;;;10.90;;
18574;SDS011;9417;16.484;102.872;2022-07-06T12:36:18;20.33;;;12.25;;
18574;SDS011;9417;16.484;102.872;2022-07-06T12:38:25;19.58;;;13.90;;
18574;SDS011;9417;16.484;102.872;2022-07-06T12:40:47;19.20;;;12.60;;
18574;SDS011;9417;16.484;102.872;2022-07-06T12:42:54;19.73;;;12.55;;
18574;SDS011;9417;16.484;102.872;2022-07-06T12:45:15;19.88;;;12.50;;
18574;SDS011;9417;16.484;102.872;2022-07-06T12:47:26;16.77;;;11.60;;
18574;SDS011;9417;16.484;102.872;2022-07-06T12:49:33;16.02;;;9.88;;
18574;SDS011;9417;16.484;102.872;2022-07-06T12:51:54;15.95;;;9.88;;
18574;SDS011;9417;16.484;102.872;2022-07-06T12:54:12;16.70;;;10.68;;
18574;SDS011;9417;16.484;102.872;2022-07-06T12:56:21;13.93;;;9.52;;
18574;SDS011;9417;16.484;102.872;2022-07-06T12:58:28;13.88;;;8.65;;
18574;SDS011;9417;16.484;102.872;2022-07-06T13:00:43;13.13;;;9.20;;
18574;SDS011;9417;16.484;102.872;2022-07-06T13:02:52;14.45;;;9.15;;
18574;SDS011;9417;16.484;102.872;2022-07-06T13:05:11;12.13;;;8.15;;
18574;SDS011;9417;16.484;102.872;2022-07-06T13:07:19;15.30;;;8.32;;
18574;SDS011;9417;16.484;102.872;2022-07-06T13:09:26;13.50;;;8.75;;
18574;SDS011;9417;16.484;102.872;2022-07-06T13:11:35;12.90;;;7.93;;
18574;SDS011;9417;16.484;102.872;2022-07-06T13:13:43;12.90;;;8.68;;
18574;SDS011;9417;16.484;102.872;2022-07-06T13:15:51;14.18;;;9.02;;
18574;SDS011;9417;16.484;102.872;2022-07-06T13:17:58;12.60;;;8.25;;
18574;SDS011;9417;16.484;102.872;2022-07-06T13:20:11;15.88;;;9.07;;
18574;SDS011;9417;16.484;102.872;2022-07-06T13:22:20;13.32;;;8.45;;
18574;SDS011;9417;16.484;102.872;2022-07-06T13:24:28;13.13;;;8.30;;
18574;SDS011;9417;16.484;102.872;2022-07-06T13:26:43;11.80;;;8.18;;
18574;SDS011;9417;16.484;102.872;2022-07-06T13:28:50;15.13;;;7.72;;
18574;SDS011;9417;16.484;102.872;2022-07-06T13:30:57;12.80;;;7.55;;
18574;SDS011;9417;16.484;102.872;2022-07-06T13:33:13;12.18;;;8.45;;
18574;SDS011;9417;16.484;102.872;2022-07-06T13:35:20;14.20;;;8.55;;
18574;SDS011;9417;16.484;102.872;2022-07-06T13:37:27;13.63;;;8.98;;
18574;SDS011;9417;16.484;102.872;2022-07-06T13:39:34;13.82;;;9.05;;
18574;SDS011;9417;16.484;102.872;2022-07-06T13:41:43;14.85;;;9.77;;
18574;SDS011;9417;16.484;102.872;2022-07-06T13:43:51;17.58;;;10.05;;
18574;SDS011;9417;16.484;102.872;2022-07-06T13:45:58;15.65;;;9.63;;
18574;SDS011;9417;16.484;102.872;2022-07-06T13:48:06;16.88;;;10.98;;
18574;SDS011;9417;16.484;102.872;2022-07-06T13:50:13;17.67;;;11.52;;
18574;SDS011;9417;16.484;102.872;2022-07-06T13:52:20;18.20;;;11.52;;
18574;SDS011;9417;16.484;102.872;2022-07-06T13:54:28;18.83;;;11.63;;
18574;SDS011;9417;16.484;102.872;2022-07-06T13:56:36;17.98;;;11.77;;
18574;SDS011;9417;16.484;102.872;2022-07-06T13:58:46;20.20;;;11.63;;
18574;SDS011;9417;16.484;102.872;2022-07-06T14:00:54;19.27;;;10.82;;
18574;SDS011;9417;16.484;102.872;2022-07-06T14:03:01;19.05;;;10.55;;
18574;SDS011;9417;16.484;102.872;2022-07-06T14:05:09;16.10;;;11.02;;
18574;SDS011;9417;16.484;102.872;2022-07-06T14:07:16;16.42;;;10.55;;
18574;SDS011;9417;16.484;102.872;2022-07-06T14:09:23;17.15;;;10.85;;
18574;SDS011;9417;16.484;102.872;2022-07-06T14:11:31;16.05;;;10.75;;
18574;SDS011;9417;16.484;102.872;2022-07-06T14:13:39;16.67;;;10.75;;
18574;SDS011;9417;16.484;102.872;2022-07-06T14:15:48;16.27;;;9.82;;
18574;SDS011;9417;16.484;102.872;2022-07-06T14:17:55;15.90;;;10.13;;
18574;SDS011;9417;16.484;102.872;2022-07-06T14:20:03;16.88;;;9.68;;
18574;SDS011;9417;16.484;102.872;2022-07-06T14:22:11;14.73;;;10.20;;
18574;SDS011;9417;16.484;102.872;2022-07-06T14:24:18;15.85;;;11.02;;
